Greenbrae, Nevada
Current Conditions -  °F | °C
As of 6:55 PM on Saturday 24 Jan 2015 (Local Time) from KRNO Reporting Station
Few Clouds Few Clouds  
Wind Chill: 48°   Ceiling: Unl
Heat Index: 48°   Visibility: 10mi
Dew Point: 20°   Wind: 3mph
Humidity: 33%   Direction: NA
Pressure: 30.42"   Gusts: NA
Location:  39.5386°N, 119.749°W
Report Text: KRNO 250255Z VRB03KT 10SM FEW210 09/M07 A3042 RMK AO2 SLP304 T00891067 53007
Loading
Personal Weather Stations






























Interactive Weather Map New forecast layout! Learn more

10-Day Weather Forecast

Advertisements
Track Severe Weather on mobile